Time;durP1;ratioP1;P1;durP2;ratioP2;P2;SDS_P1;SDS_P2;PMS_P1;PMS_P2;Temp;Humidity;BMP_temperature;BMP_pressure;BME280_temperature;BME280_humidity;BME280_pressure;Samples;Min_cycle;Max_cycle;Signal;HPM_P1;HPM_P2
2021/12/15 00:02:20;;;;;;;12.63;11.40;;;9.60;99.90;;;;;;5013736;28;20255;-67
2021/12/15 00:04:50;;;;;;;12.57;11.37;;;9.60;99.90;;;;;;5012356;28;20215;-68
2021/12/15 00:07:17;;;;;;;13.27;11.47;;;9.70;99.90;;;;;;5013951;28;20164;-68
2021/12/15 00:09:43;;;;;;;11.90;10.90;;;9.70;99.90;;;;;;5013663;28;20704;-68
2021/12/15 00:12:09;;;;;;;12.27;11.17;;;9.70;99.90;;;;;;5012337;28;20176;-68
2021/12/15 00:14:35;;;;;;;12.50;10.53;;;9.70;99.90;;;;;;5013512;28;20246;-66
2021/12/15 00:17:01;;;;;;;11.63;10.60;;;9.70;99.90;;;;;;5013863;28;20168;-69
2021/12/15 00:19:28;;;;;;;12.20;11.20;;;9.70;99.90;;;;;;5013493;28;20218;-68
2021/12/15 00:21:55;;;;;;;12.33;11.07;;;9.70;99.90;;;;;;5013552;28;20176;-66
2021/12/15 00:24:21;;;;;;;11.27;10.17;;;9.70;99.90;;;;;;5013372;28;20548;-67
2021/12/15 00:26:47;;;;;;;11.73;10.70;;;9.70;99.90;;;;;;5013454;28;20183;-68
2021/12/15 00:29:13;;;;;;;12.17;11.00;;;9.70;99.90;;;;;;5013530;28;20192;-68
2021/12/15 00:31:38;;;;;;;10.70;9.60;;;9.70;99.90;;;;;;5013283;28;20173;-68
2021/12/15 00:34:07;;;;;;;10.67;9.77;;;9.70;99.90;;;;;;5013195;28;20179;-67
2021/12/15 00:36:33;;;;;;;10.37;9.57;;;9.70;99.90;;;;;;5012349;28;20168;-67
2021/12/15 00:38:59;;;;;;;10.20;9.30;;;9.70;99.90;;;;;;5013710;28;20325;-67
2021/12/15 00:41:25;;;;;;;10.43;9.53;;;9.70;99.90;;;;;;5011859;28;20179;-67
2021/12/15 00:43:51;;;;;;;9.23;8.50;;;9.70;99.90;;;;;;5013180;28;20609;-67
2021/12/15 00:46:17;;;;;;;10.47;9.47;;;9.70;99.90;;;;;;5013018;28;20160;-67
2021/12/15 00:48:43;;;;;;;10.27;9.27;;;9.80;99.90;;;;;;5012924;28;20196;-67
2021/12/15 00:51:09;;;;;;;10.13;9.30;;;9.80;99.90;;;;;;5013109;28;20180;-67
2021/12/15 00:53:35;;;;;;;9.23;8.53;;;9.80;99.90;;;;;;5013054;28;20180;-67
2021/12/15 00:56:00;;;;;;;10.47;9.43;;;9.90;99.90;;;;;;5013018;28;20705;-67
2021/12/15 00:58:26;;;;;;;9.97;9.27;;;9.90;99.90;;;;;;5012731;28;20275;-66
2021/12/15 01:00:56;;;;;;;11.00;9.83;;;9.90;99.90;;;;;;5012876;28;20184;-67
2021/12/15 01:03:22;;;;;;;10.43;9.73;;;9.90;99.90;;;;;;5011380;28;20196;-67
2021/12/15 01:05:51;;;;;;;9.97;9.23;;;10.00;99.90;;;;;;5012775;28;20172;-67
2021/12/15 01:08:24;;;;;;;10.00;8.40;;;9.90;99.90;;;;;;5012673;28;20194;-67
2021/12/15 01:11:07;;;;;;;9.50;8.70;;;10.00;99.90;;;;;;5012975;28;20544;-65
2021/12/15 01:21:54;;;;;;;9.90;9.20;;;10.00;99.90;;;;;;5012759;28;20230;-67
2021/12/15 01:24:20;;;;;;;9.73;8.93;;;10.00;99.90;;;;;;5011933;28;20552;-66
2021/12/15 01:26:46;;;;;;;9.70;8.97;;;10.00;99.90;;;;;;5012589;28;20215;-65
2021/12/15 01:29:11;;;;;;;9.27;8.53;;;10.00;99.90;;;;;;5012219;28;20231;-66
2021/12/15 01:31:37;;;;;;;9.10;8.37;;;10.00;99.90;;;;;;5012372;28;20215;-65
2021/12/15 01:34:03;;;;;;;9.00;8.30;;;10.00;99.90;;;;;;5011996;28;20438;-65
2021/12/15 01:36:29;;;;;;;8.20;7.70;;;10.10;99.90;;;;;;5012174;28;20529;-65
2021/12/15 01:38:55;;;;;;;8.13;7.43;;;10.10;99.90;;;;;;5012098;28;20294;-65
2021/12/15 01:41:23;;;;;;;8.30;7.67;;;10.10;99.90;;;;;;5012384;28;20184;-65
2021/12/15 01:49:31;;;;;;;8.20;7.70;;;10.10;99.90;;;;;;5011914;28;20195;-65
2021/12/15 01:52:00;;;;;;;8.23;7.53;;;10.10;99.90;;;;;;5011466;28;20183;-65
2021/12/15 01:54:27;;;;;;;8.13;7.53;;;10.20;99.90;;;;;;5011861;28;20414;-67
2021/12/15 01:56:53;;;;;;;8.80;8.13;;;10.10;99.90;;;;;;5011779;28;20190;-65
2021/12/15 01:59:21;;;;;;;8.63;8.00;;;10.10;99.90;;;;;;5011928;28;20188;-67
2021/12/15 02:01:47;;;;;;;8.17;7.57;;;10.10;99.90;;;;;;5011737;28;20180;-65
2021/12/15 02:04:16;;;;;;;8.83;8.20;;;10.10;99.90;;;;;;5011505;28;20204;-67
2021/12/15 02:06:44;;;;;;;8.50;7.80;;;10.20;99.90;;;;;;5011412;28;20180;-65
2021/12/15 02:09:12;;;;;;;8.43;7.83;;;10.20;99.90;;;;;;5011790;28;20199;-65
2021/12/15 02:11:38;;;;;;;8.73;8.03;;;10.20;99.90;;;;;;5011485;28;20217;-65
2021/12/15 02:14:04;;;;;;;8.17;7.60;;;10.20;99.90;;;;;;5011877;28;20172;-65
2021/12/15 02:16:30;;;;;;;8.30;7.80;;;10.20;99.90;;;;;;5011650;28;20266;-65
2021/12/15 02:18:55;;;;;;;8.43;7.60;;;10.20;99.90;;;;;;5011674;28;20192;-65
2021/12/15 02:21:24;;;;;;;8.87;8.27;;;10.20;99.90;;;;;;5011305;28;20187;-66
2021/12/15 02:23:55;;;;;;;8.67;8.00;;;10.10;99.90;;;;;;5011334;28;20198;-65
2021/12/15 02:26:37;;;;;;;7.67;7.13;;;10.10;99.90;;;;;;5011442;28;20168;-65
2021/12/15 02:29:05;;;;;;;9.13;8.43;;;10.10;99.90;;;;;;5011706;28;20192;-65
2021/12/15 02:39:18;;;;;;;9.10;8.50;;;9.90;99.90;;;;;;5010911;28;20254;-65
2021/12/15 02:41:46;;;;;;;10.07;9.37;;;9.90;99.90;;;;;;5011456;28;20661;-65
2021/12/15 02:44:16;;;;;;;9.03;8.23;;;9.90;99.90;;;;;;5010941;28;20561;-65
2021/12/15 02:46:45;;;;;;;9.20;8.60;;;9.90;99.90;;;;;;5011806;28;20511;-65
2021/12/15 02:49:15;;;;;;;10.00;9.20;;;9.90;99.90;;;;;;5011055;28;20200;-65
2021/12/15 02:51:43;;;;;;;9.00;8.30;;;9.90;99.90;;;;;;5011273;28;20172;-66
2021/12/15 02:54:12;;;;;;;9.40;8.60;;;9.80;99.90;;;;;;5010551;28;20206;-65
2021/12/15 02:56:39;;;;;;;9.33;8.53;;;9.90;99.90;;;;;;5011275;28;20192;-65
2021/12/15 02:59:07;;;;;;;8.17;7.67;;;9.80;99.90;;;;;;5010944;28;20232;-65
2021/12/15 03:01:57;;;;;;;9.13;8.40;;;9.80;99.90;;;;;;5015208;28;20200;-65
2021/12/15 03:17:51;;;;;;;9.03;8.43;;;9.60;99.90;;;;;;5014661;28;20208;-65
2021/12/15 03:20:18;;;;;;;8.80;8.27;;;9.50;99.90;;;;;;5014782;28;20262;-67
2021/12/15 03:22:45;;;;;;;9.80;9.17;;;9.50;99.90;;;;;;5014504;28;20184;-64
2021/12/15 03:25:10;;;;;;;9.67;9.07;;;9.40;99.90;;;;;;5014803;28;20168;-66
2021/12/15 03:33:34;;;;;;;9.43;8.73;;;9.30;99.90;;;;;;5014425;28;20262;-65
2021/12/15 03:38:33;;;;;;;8.80;8.10;;;9.20;99.90;;;;;;5014616;28;20216;-64
2021/12/15 03:40:59;;;;;;;9.13;8.40;;;9.10;99.90;;;;;;5014564;28;20325;-63
2021/12/15 03:43:25;;;;;;;9.33;8.57;;;9.10;99.90;;;;;;5014417;28;20203;-64
2021/12/15 03:46:04;;;;;;;8.80;8.20;;;9.10;99.90;;;;;;5013250;28;20266;-64
2021/12/15 03:48:35;;;;;;;9.20;8.53;;;9.10;99.90;;;;;;5014311;28;20599;-63
2021/12/15 03:51:03;;;;;;;8.60;8.00;;;9.10;99.90;;;;;;5014322;28;20535;-64
2021/12/15 03:53:29;;;;;;;8.77;8.03;;;9.10;99.90;;;;;;5014180;28;20180;-64
2021/12/15 03:55:55;;;;;;;9.00;8.40;;;9.00;99.90;;;;;;5014225;28;20263;-64
2021/12/15 03:58:23;;;;;;;10.40;9.60;;;9.00;99.90;;;;;;5014081;28;20192;-65
2021/12/15 04:00:55;;;;;;;9.77;9.07;;;9.00;99.90;;;;;;5014147;28;20202;-65
2021/12/15 04:03:25;;;;;;;9.67;8.97;;;9.00;99.90;;;;;;5013558;28;20196;-65
2021/12/15 04:05:53;;;;;;;9.10;8.40;;;9.00;99.90;;;;;;5012667;28;20199;-64
2021/12/15 04:08:19;;;;;;;9.10;8.50;;;9.00;99.90;;;;;;5013471;28;20196;-65
2021/12/15 04:10:45;;;;;;;9.30;8.60;;;9.10;99.90;;;;;;5013961;28;20579;-65
2021/12/15 04:13:13;;;;;;;9.20;8.50;;;9.10;99.90;;;;;;5013426;28;20191;-65
2021/12/15 04:16:42;;;;;;;9.97;9.03;;;9.10;99.90;;;;;;5013578;28;20580;-65
2021/12/15 04:18:28;;;;;;;10.37;8.83;;;9.10;99.90;;;;;;5012509;28;20220;-65
2021/12/15 04:20:54;;;;;;;10.47;9.47;;;9.10;99.90;;;;;;5013873;28;20185;-64
2021/12/15 04:23:20;;;;;;;8.63;7.97;;;9.10;99.90;;;;;;5013157;28;20204;-65
2021/12/15 04:25:50;;;;;;;9.60;8.70;;;9.10;99.90;;;;;;5013677;28;20172;-64
2021/12/15 04:28:35;;;;;;;9.47;8.73;;;9.10;99.90;;;;;;5013216;28;20184;-64
2021/12/15 04:31:05;;;;;;;9.83;8.83;;;9.20;99.90;;;;;;5013460;28;20169;-65
2021/12/15 04:33:45;;;;;;;10.20;9.30;;;9.20;99.90;;;;;;5013253;28;20263;-65
2021/12/15 04:36:13;;;;;;;10.30;9.50;;;9.20;99.90;;;;;;5013531;28;20207;-66
2021/12/15 04:38:41;;;;;;;9.07;8.27;;;9.30;99.90;;;;;;5012979;28;20895;-65
2021/12/15 04:41:11;;;;;;;10.13;9.20;;;9.20;99.90;;;;;;5012867;28;20203;-64
2021/12/15 04:43:40;;;;;;;9.83;9.13;;;9.20;99.90;;;;;;5012977;28;20200;-65
2021/12/15 04:46:08;;;;;;;10.50;9.63;;;9.20;99.90;;;;;;5013112;28;20659;-65
2021/12/15 04:48:34;;;;;;;9.37;8.67;;;9.20;99.90;;;;;;5012930;28;20191;-66
2021/12/15 04:51:00;;;;;;;8.83;8.17;;;9.20;99.90;;;;;;5013090;28;20182;-65
2021/12/15 04:53:26;;;;;;;9.23;8.47;;;9.30;99.90;;;;;;5012974;28;20259;-64
2021/12/15 04:55:52;;;;;;;8.87;8.17;;;9.30;99.90;;;;;;5013174;28;20182;-65
2021/12/15 04:58:18;;;;;;;8.63;7.97;;;9.30;99.90;;;;;;5012763;28;20574;-65
2021/12/15 05:00:53;;;;;;;9.57;8.83;;;9.20;99.90;;;;;;5012889;28;20176;-65
2021/12/15 05:03:19;;;;;;;10.53;9.67;;;9.20;99.90;;;;;;5011285;28;20306;-65
2021/12/15 05:05:45;;;;;;;10.00;9.00;;;9.20;99.90;;;;;;5012626;28;20271;-65
2021/12/15 05:08:11;;;;;;;9.93;9.23;;;9.30;99.90;;;;;;5011881;28;20275;-64
2021/12/15 05:10:37;;;;;;;11.20;10.17;;;9.30;99.90;;;;;;5012335;28;20184;-64
2021/12/15 05:13:04;;;;;;;9.80;9.00;;;9.30;99.90;;;;;;5012810;28;20535;-65
2021/12/15 05:15:30;;;;;;;10.87;10.00;;;9.40;99.90;;;;;;5012755;28;20180;-64
2021/12/15 05:17:56;;;;;;;9.77;8.73;;;9.40;99.90;;;;;;5012806;28;20210;-67
2021/12/15 05:20:23;;;;;;;9.37;8.20;;;9.40;99.90;;;;;;5012242;28;20560;-68
2021/12/15 05:22:49;;;;;;;10.17;9.27;;;9.40;99.90;;;;;;5011856;28;20172;-65
2021/12/15 05:25:15;;;;;;;10.30;9.43;;;9.40;99.90;;;;;;5012488;28;20182;-66
2021/12/15 05:27:42;;;;;;;11.23;10.43;;;9.30;99.90;;;;;;5010877;28;20204;-66
2021/12/15 05:30:11;;;;;;;10.57;9.67;;;9.30;99.90;;;;;;5012556;28;20248;-66
2021/12/15 05:32:37;;;;;;;9.53;8.83;;;9.30;99.90;;;;;;5011645;28;20295;-66
2021/12/15 05:35:05;;;;;;;9.77;9.03;;;9.30;99.90;;;;;;5012462;28;20186;-67
2021/12/15 05:37:31;;;;;;;12.77;9.07;;;9.20;99.90;;;;;;5011861;28;20203;-66
2021/12/15 05:39:57;;;;;;;9.73;9.10;;;9.20;99.90;;;;;;5012502;28;20223;-65
2021/12/15 05:42:24;;;;;;;8.33;7.60;;;9.20;99.90;;;;;;5011811;28;20581;-63
2021/12/15 05:44:51;;;;;;;8.23;7.63;;;9.20;99.90;;;;;;5012283;28;20254;-66
2021/12/15 05:47:18;;;;;;;8.30;7.73;;;9.20;99.90;;;;;;5011799;28;20186;-65
2021/12/15 05:49:44;;;;;;;8.90;8.30;;;9.20;99.90;;;;;;5004634;28;20626;-67
2021/12/15 05:52:10;;;;;;;8.87;8.27;;;9.10;99.90;;;;;;4992509;28;20165;-67
2021/12/15 05:54:36;;;;;;;9.40;8.60;;;9.10;99.90;;;;;;4993225;28;20173;-67
2021/12/15 05:57:03;;;;;;;9.87;8.23;;;9.10;99.90;;;;;;5012099;28;20172;-67
2021/12/15 05:59:28;;;;;;;8.57;7.93;;;9.20;99.90;;;;;;5011840;28;20196;-66
2021/12/15 06:01:54;;;;;;;8.90;8.00;;;9.20;99.90;;;;;;5011746;28;20253;-63
2021/12/15 06:04:21;;;;;;;9.80;8.83;;;9.20;99.90;;;;;;5012001;28;20200;-66
2021/12/15 06:06:47;;;;;;;8.83;8.07;;;9.10;99.90;;;;;;5013828;28;20176;-67
2021/12/15 06:09:13;;;;;;;9.47;8.63;;;9.10;99.90;;;;;;5015133;28;20200;-66
2021/12/15 06:11:40;;;;;;;8.80;8.10;;;9.10;99.90;;;;;;5015744;28;20180;-66
2021/12/15 06:14:07;;;;;;;8.70;8.10;;;9.10;99.90;;;;;;5013674;28;20215;-66
2021/12/15 06:16:34;;;;;;;9.60;8.80;;;9.10;99.90;;;;;;5015301;28;20211;-66
2021/12/15 06:19:02;;;;;;;8.83;8.13;;;9.10;99.90;;;;;;5014703;28;20204;-67
2021/12/15 06:21:28;;;;;;;9.07;8.43;;;9.10;99.90;;;;;;5011588;28;20507;-67
2021/12/15 06:23:53;;;;;;;9.10;8.40;;;9.20;99.90;;;;;;5011306;28;20212;-67
2021/12/15 06:26:20;;;;;;;8.07;7.40;;;9.20;99.90;;;;;;5010540;28;20168;-66
2021/12/15 06:28:47;;;;;;;9.17;8.03;;;9.20;99.90;;;;;;5009932;28;20231;-67
2021/12/15 06:31:14;;;;;;;7.73;7.03;;;9.10;99.90;;;;;;5011473;28;20169;-66
2021/12/15 06:33:41;;;;;;;8.53;7.87;;;9.10;99.90;;;;;;5009692;28;20176;-66
2021/12/15 06:36:08;;;;;;;8.80;8.10;;;9.10;99.90;;;;;;5015110;28;20168;-66
2021/12/15 06:38:37;;;;;;;8.90;8.27;;;9.10;99.90;;;;;;5015628;28;20219;-65
2021/12/15 06:41:05;;;;;;;11.60;8.80;;;9.10;99.90;;;;;;5015721;28;20172;-66
2021/12/15 06:43:32;;;;;;;9.20;8.30;;;9.10;99.90;;;;;;5013762;28;20299;-65
2021/12/15 06:46:15;;;;;;;8.67;8.07;;;9.00;99.90;;;;;;5015523;28;20541;-65
2021/12/15 06:59:49;;;;;;;9.20;8.40;;;9.10;99.90;;;;;;5015310;28;20739;-65
2021/12/15 07:02:15;;;;;;;13.60;8.37;;;9.10;99.90;;;;;;5015118;28;20267;-65
2021/12/15 07:04:41;;;;;;;9.50;8.77;;;9.10;99.90;;;;;;5014800;28;20230;-65
2021/12/15 07:07:06;;;;;;;9.80;9.20;;;9.10;99.90;;;;;;5014509;28;20184;-65
2021/12/15 07:09:33;;;;;;;9.20;8.60;;;9.10;99.90;;;;;;5013879;28;20207;-66
2021/12/15 07:12:00;;;;;;;9.10;8.30;;;9.10;99.90;;;;;;5013809;28;20533;-66
2021/12/15 07:14:25;;;;;;;8.80;8.10;;;9.10;99.90;;;;;;5014428;28;20210;-66
2021/12/15 07:16:54;;;;;;;8.90;8.07;;;9.00;99.90;;;;;;5014707;28;20652;-66
2021/12/15 07:19:32;;;;;;;9.23;8.33;;;9.10;99.90;;;;;;5014878;28;20239;-66
2021/12/15 07:22:30;;;;;;;8.80;8.20;;;9.00;99.90;;;;;;5014417;28;20183;-65
2021/12/15 07:24:56;;;;;;;8.50;7.80;;;9.00;99.90;;;;;;5013459;28;20210;-67
2021/12/15 07:27:22;;;;;;;9.20;8.40;;;9.00;99.90;;;;;;5014282;28;20176;-66
2021/12/15 07:29:48;;;;;;;9.53;8.77;;;9.00;99.90;;;;;;5014846;28;20179;-66
2021/12/15 07:32:14;;;;;;;9.87;8.87;;;9.00;99.90;;;;;;5014278;28;20176;-66
2021/12/15 07:34:40;;;;;;;9.70;9.10;;;9.00;99.90;;;;;;5014254;28;20180;-66
2021/12/15 07:37:06;;;;;;;10.10;9.37;;;9.00;99.90;;;;;;5014258;28;20216;-66
2021/12/15 07:39:31;;;;;;;10.40;9.50;;;9.00;99.90;;;;;;5013365;28;20258;-66
2021/12/15 07:42:06;;;;;;;9.67;9.07;;;9.10;99.90;;;;;;5011716;28;20199;-66
2021/12/15 07:44:34;;;;;;;10.37;9.57;;;9.10;99.90;;;;;;5012678;28;20207;-66
2021/12/15 07:47:00;;;;;;;10.73;9.77;;;9.10;99.90;;;;;;5012726;28;20207;-66
2021/12/15 07:49:27;;;;;;;9.27;8.57;;;9.10;99.90;;;;;;5013965;28;20191;-66
2021/12/15 07:52:01;;;;;;;10.17;9.33;;;9.10;99.90;;;;;;5013362;28;20263;-66
2021/12/15 07:54:32;;;;;;;9.70;8.90;;;9.10;99.90;;;;;;5013783;28;20180;-66
2021/12/15 07:56:59;;;;;;;9.23;8.50;;;9.10;99.90;;;;;;5013030;28;20230;-66
2021/12/15 07:59:25;;;;;;;10.03;9.13;;;9.10;99.90;;;;;;5013393;28;20708;-66
2021/12/15 08:01:51;;;;;;;8.30;7.60;;;9.10;99.90;;;;;;5014078;28;20259;-66
2021/12/15 08:04:18;;;;;;;11.57;10.57;;;9.10;99.90;;;;;;5013934;28;20708;-66
2021/12/15 08:06:45;;;;;;;11.77;10.87;;;9.10;99.90;;;;;;5012637;28;20271;-67
2021/12/15 08:09:12;;;;;;;12.73;11.60;;;9.20;99.90;;;;;;5012816;28;20556;-66
2021/12/15 08:11:39;;;;;;;12.80;11.63;;;9.20;99.90;;;;;;5013590;28;20180;-65
2021/12/15 08:14:05;;;;;;;13.00;11.83;;;9.20;99.90;;;;;;5012598;28;20176;-66
2021/12/15 08:16:31;;;;;;;13.30;12.30;;;9.20;99.90;;;;;;5012798;28;20646;-64
2021/12/15 08:18:57;;;;;;;11.90;10.90;;;9.20;99.90;;;;;;5014036;28;20196;-66
2021/12/15 08:21:22;;;;;;;10.97;9.97;;;9.30;99.90;;;;;;5012432;28;20203;-66
2021/12/15 08:23:48;;;;;;;10.20;9.40;;;9.30;99.90;;;;;;5013661;28;20204;-67
2021/12/15 08:26:14;;;;;;;11.13;10.03;;;9.40;99.90;;;;;;5013655;28;20664;-66
2021/12/15 08:28:39;;;;;;;10.50;9.50;;;9.40;99.90;;;;;;5013456;28;20271;-66
2021/12/15 08:31:06;;;;;;;10.03;9.07;;;9.40;99.90;;;;;;5011982;28;20172;-66
2021/12/15 08:33:32;;;;;;;9.87;8.77;;;9.40;99.90;;;;;;5012746;28;20501;-66
2021/12/15 08:36:04;;;;;;;9.77;8.77;;;9.40;99.90;;;;;;5013143;28;20200;-66
2021/12/15 08:38:32;;;;;;;9.50;8.70;;;9.40;99.90;;;;;;5011882;28;20294;-65
2021/12/15 08:40:59;;;;;;;9.53;8.63;;;9.40;99.90;;;;;;5013246;28;20176;-66
2021/12/15 08:43:25;;;;;;;9.10;7.93;;;9.40;99.90;;;;;;4996952;28;20201;-66
2021/12/15 08:45:59;;;;;;;9.10;8.23;;;9.40;99.90;;;;;;4996912;28;20230;-66
2021/12/15 08:48:25;;;;;;;9.20;8.47;;;9.40;99.90;;;;;;5013174;28;20210;-66
2021/12/15 08:50:52;;;;;;;8.57;7.97;;;9.50;99.90;;;;;;5003129;28;20616;-66
2021/12/15 08:53:17;;;;;;;9.47;8.60;;;9.50;99.90;;;;;;5010553;28;20727;-66
2021/12/15 08:55:46;;;;;;;9.40;8.50;;;9.50;99.90;;;;;;5008051;28;20185;-66
2021/12/15 08:58:14;;;;;;;8.83;8.13;;;9.60;99.90;;;;;;4992616;28;20211;-66
2021/12/15 09:00:43;;;;;;;8.40;7.70;;;9.60;99.90;;;;;;5008291;28;20262;-66
2021/12/15 09:03:10;;;;;;;13.33;7.87;;;9.60;99.90;;;;;;5012718;28;20223;-66
2021/12/15 09:05:36;;;;;;;9.30;8.37;;;9.70;99.90;;;;;;5011293;28;20180;-66
2021/12/15 09:08:03;;;;;;;9.33;8.00;;;9.70;99.90;;;;;;5012799;28;20195;-66
2021/12/15 09:10:31;;;;;;;9.00;8.30;;;9.70;99.90;;;;;;5012662;28;20176;-66
2021/12/15 09:12:58;;;;;;;9.03;8.33;;;9.70;99.90;;;;;;5012819;28;20323;-66
2021/12/15 09:15:24;;;;;;;9.63;8.47;;;9.70;99.90;;;;;;5011725;28;20422;-65
2021/12/15 09:17:50;;;;;;;9.63;9.03;;;9.80;99.90;;;;;;5011946;28;20349;-66
2021/12/15 09:20:20;;;;;;;9.17;8.57;;;9.80;99.90;;;;;;5012859;28;20538;-66
2021/12/15 09:22:47;;;;;;;10.30;9.50;;;9.90;99.90;;;;;;5012181;28;20164;-66
2021/12/15 09:25:14;;;;;;;10.47;9.80;;;9.90;99.90;;;;;;5012487;28;20275;-66
2021/12/15 09:27:42;;;;;;;10.50;9.70;;;9.90;99.90;;;;;;5012208;28;20196;-66
2021/12/15 09:30:11;;;;;;;10.13;9.43;;;9.90;99.90;;;;;;5012599;28;20168;-66
2021/12/15 09:32:38;;;;;;;10.53;9.77;;;9.90;99.90;;;;;;5011907;28;20700;-66
2021/12/15 09:35:06;;;;;;;10.37;9.43;;;9.80;99.90;;;;;;5012514;28;20180;-66
2021/12/15 09:37:32;;;;;;;11.43;10.43;;;9.80;99.90;;;;;;5010917;28;20188;-66
2021/12/15 09:39:58;;;;;;;10.70;10.00;;;9.70;99.90;;;;;;5012456;28;20176;-66
2021/12/15 09:42:31;;;;;;;10.23;9.57;;;9.60;99.90;;;;;;5011683;28;20666;-66
2021/12/15 09:45:15;;;;;;;10.20;9.40;;;9.60;99.90;;;;;;5011947;28;20207;-66
2021/12/15 10:04:10;;;;;;;9.37;8.67;;;9.60;99.90;;;;;;5011911;28;20214;-66
2021/12/15 10:06:52;;;;;;;9.00;8.40;;;9.60;99.90;;;;;;5011439;28;20184;-66
2021/12/15 10:17:41;;;;;;;9.60;8.90;;;9.70;99.90;;;;;;5010706;28;20223;-66
2021/12/15 10:20:08;;;;;;;9.00;8.20;;;9.70;99.90;;;;;;5011921;28;20594;-66
2021/12/15 10:22:44;;;;;;;8.67;7.87;;;9.80;99.90;;;;;;5011058;28;20219;-66
2021/12/15 10:25:30;;;;;;;8.23;7.63;;;9.80;99.90;;;;;;5011835;28;20199;-66
2021/12/15 10:28:06;;;;;;;9.30;8.50;;;9.80;99.90;;;;;;4992117;28;20192;-66
2021/12/15 10:30:38;;;;;;;8.93;8.17;;;9.80;99.90;;;;;;5009279;28;20249;-66
2021/12/15 10:33:06;;;;;;;9.53;8.83;;;9.80;99.90;;;;;;5011458;28;20665;-66
2021/12/15 10:35:43;;;;;;;10.20;9.50;;;9.80;99.90;;;;;;5011444;28;20186;-66
2021/12/15 10:38:28;;;;;;;10.30;9.60;;;9.90;99.90;;;;;;5011496;28;20216;-66
2021/12/15 10:41:00;;;;;;;8.63;7.90;;;9.90;99.90;;;;;;5010211;28;20215;-66
2021/12/15 10:44:03;;;;;;;9.23;8.43;;;10.00;99.90;;;;;;5011164;28;20228;-66
2021/12/15 10:46:49;;;;;;;8.40;7.70;;;10.00;99.90;;;;;;4992038;28;20176;-66
2021/12/15 10:49:27;;;;;;;8.00;7.40;;;10.00;99.90;;;;;;4998642;28;20188;-66
2021/12/15 10:52:04;;;;;;;7.90;7.40;;;10.10;99.90;;;;;;5011667;28;20204;-66
2021/12/15 10:54:36;;;;;;;7.53;6.80;;;10.10;99.90;;;;;;5011096;28;20233;-66
2021/12/15 10:57:11;;;;;;;8.23;7.67;;;10.10;99.90;;;;;;5010995;28;20179;-66
2021/12/15 10:59:43;;;;;;;8.40;7.80;;;10.20;99.90;;;;;;4991676;28;20192;-66
2021/12/15 11:02:12;;;;;;;9.20;8.50;;;10.20;99.90;;;;;;4991539;28;20188;-66
2021/12/15 11:05:02;;;;;;;7.43;6.83;;;10.30;99.90;;;;;;4991622;28;20204;-66
2021/12/15 11:07:34;;;;;;;8.57;7.83;;;10.30;99.90;;;;;;4991818;28;20177;-66
2021/12/15 11:10:08;;;;;;;8.70;8.03;;;10.30;99.90;;;;;;5006933;28;20180;-66
2021/12/15 11:12:35;;;;;;;8.37;7.67;;;10.30;99.90;;;;;;4991540;28;20204;-65
2021/12/15 11:15:04;;;;;;;8.70;8.10;;;10.30;99.90;;;;;;4990837;28;20200;-66
2021/12/15 11:17:54;;;;;;;8.90;8.20;;;10.40;99.90;;;;;;4991734;28;20184;-65
2021/12/15 11:20:24;;;;;;;8.30;7.60;;;10.40;99.90;;;;;;4992160;28;20537;-65
2021/12/15 11:22:49;;;;;;;8.80;8.10;;;10.40;99.90;;;;;;5010034;28;20184;-65
2021/12/15 11:25:28;;;;;;;8.13;7.63;;;10.50;99.90;;;;;;4995197;28;20212;-66
2021/12/15 11:27:58;;;;;;;8.30;7.50;;;10.40;99.90;;;;;;4995311;28;20213;-65
2021/12/15 11:30:44;;;;;;;8.47;7.73;;;10.50;99.90;;;;;;4996195;28;20585;-65
2021/12/15 11:33:21;;;;;;;8.07;7.47;;;10.50;99.90;;;;;;4995033;28;20219;-66
2021/12/15 11:35:54;;;;;;;7.60;7.00;;;10.50;99.90;;;;;;4999078;28;20509;-64
2021/12/15 11:38:33;;;;;;;7.77;7.17;;;10.40;99.90;;;;;;5014598;28;20219;-65
2021/12/15 11:40:59;;;;;;;7.70;7.20;;;10.50;99.90;;;;;;5013245;28;20188;-65
2021/12/15 11:43:47;;;;;;;7.17;6.67;;;10.50;99.90;;;;;;5013294;28;20368;-65
2021/12/15 11:46:18;;;;;;;7.73;7.23;;;10.50;99.90;;;;;;5013325;28;20219;-65
2021/12/15 11:48:54;;;;;;;8.47;7.77;;;10.50;99.90;;;;;;5014331;28;20223;-66
2021/12/15 11:51:29;;;;;;;8.63;8.00;;;10.60;99.90;;;;;;5014307;28;20241;-66
2021/12/15 11:53:55;;;;;;;9.30;8.60;;;10.60;99.90;;;;;;5013035;28;20176;-65
2021/12/15 11:56:30;;;;;;;8.27;7.67;;;10.70;99.90;;;;;;5012757;28;20254;-65
2021/12/15 11:59:13;;;;;;;8.40;7.80;;;10.70;99.90;;;;;;5012896;28;20206;-67
2021/12/15 12:01:59;;;;;;;8.77;8.10;;;10.70;99.90;;;;;;5012632;28;20184;-65
2021/12/15 12:04:33;;;;;;;8.13;7.57;;;10.70;99.90;;;;;;5014209;28;20302;-66
2021/12/15 12:07:15;;;;;;;9.30;8.43;;;10.80;99.90;;;;;;5012847;28;20176;-65
2021/12/15 12:09:45;;;;;;;9.03;8.33;;;10.80;99.90;;;;;;5012891;28;20188;-65
2021/12/15 12:12:12;;;;;;;8.70;8.13;;;10.80;99.90;;;;;;5012502;28;20204;-65
2021/12/15 12:14:41;;;;;;;8.93;8.30;;;10.80;99.90;;;;;;5013797;28;20168;-67
2021/12/15 12:17:13;;;;;;;8.53;7.73;;;10.80;99.90;;;;;;5013842;28;20180;-66
2021/12/15 12:19:52;;;;;;;11.60;10.43;;;10.80;99.90;;;;;;5013460;28;20214;-65
2021/12/15 12:22:19;;;;;;;12.67;11.37;;;10.80;99.90;;;;;;5013630;28;20172;-66
2021/12/15 12:24:47;;;;;;;11.17;10.17;;;10.80;99.90;;;;;;5013396;28;20582;-66
2021/12/15 12:27:14;;;;;;;10.97;10.17;;;10.90;99.90;;;;;;5013712;28;20532;-65
2021/12/15 12:29:42;;;;;;;11.63;10.73;;;10.90;99.90;;;;;;5013410;28;20239;-65
2021/12/15 12:32:08;;;;;;;10.00;9.30;;;11.00;99.90;;;;;;5012275;28;20179;-65
2021/12/15 12:34:33;;;;;;;9.30;8.60;;;11.00;99.90;;;;;;5011982;28;20545;-65
2021/12/15 12:36:59;;;;;;;10.97;10.07;;;10.90;99.90;;;;;;5013463;28;20180;-65
2021/12/15 12:39:34;;;;;;;9.67;8.93;;;10.90;99.90;;;;;;5050311;22;20313;-68
2021/12/15 12:42:00;;;;;;;10.77;9.77;;;10.80;99.90;;;;;;5033030;28;20166;-68
2021/12/15 12:45:06;;;;;;;10.27;9.47;;;10.90;99.90;;;;;;5032983;28;20606;-65
2021/12/15 12:47:39;;;;;;;9.80;9.03;;;11.00;99.90;;;;;;5032715;28;20246;-65
2021/12/15 13:01:12;;;;;;;10.77;9.90;;;11.00;99.90;;;;;;5014996;28;20613;-65
2021/12/15 13:03:46;;;;;;;10.93;10.03;;;11.00;99.90;;;;;;5032478;28;20630;-64
2021/12/15 13:06:18;;;;;;;10.40;9.50;;;11.00;99.90;;;;;;5032652;28;20596;-64
2021/12/15 13:08:45;;;;;;;11.03;10.13;;;11.10;99.90;;;;;;5032534;28;20949;-65
2021/12/15 13:11:20;;;;;;;10.53;9.63;;;11.20;99.90;;;;;;5032651;28;20580;-65
2021/12/15 13:14:10;;;;;;;11.27;10.27;;;11.20;99.90;;;;;;5032462;28;20644;-65
2021/12/15 13:16:55;;;;;;;11.30;9.97;;;11.20;99.90;;;;;;5031221;28;20186;-65
2021/12/15 13:19:32;;;;;;;10.37;9.37;;;11.30;99.90;;;;;;5032585;28;20668;-66
2021/12/15 13:31:08;;;;;;;10.60;9.67;;;11.30;99.90;;;;;;5032086;28;20302;-66
2021/12/15 13:33:38;;;;;;;10.63;9.73;;;11.20;99.90;;;;;;5032246;28;20176;-65
2021/12/15 13:36:10;;;;;;;11.30;10.30;;;11.10;99.90;;;;;;5032367;28;20229;-67
2021/12/15 13:38:54;;;;;;;11.93;10.73;;;11.10;99.90;;;;;;5031891;28;20207;-67
2021/12/15 13:44:04;;;;;;;10.57;9.37;;;11.00;99.90;;;;;;5031586;28;20554;-66
2021/12/15 13:46:45;;;;;;;12.83;10.47;;;11.00;99.90;;;;;;5032484;28;20254;-67
2021/12/15 13:49:23;;;;;;;13.03;11.80;;;10.90;99.90;;;;;;5032202;28;20188;-67
2021/12/15 13:51:52;;;;;;;14.47;11.43;;;10.90;99.90;;;;;;5032220;28;20163;-66
2021/12/15 13:54:41;;;;;;;12.43;11.13;;;10.90;99.90;;;;;;5031650;28;20191;-66
2021/12/15 13:57:20;;;;;;;10.87;9.70;;;10.90;99.90;;;;;;5025881;28;20187;-65
2021/12/15 13:59:51;;;;;;;12.97;11.37;;;10.80;99.90;;;;;;5027706;28;20196;-66
2021/12/15 14:02:37;;;;;;;13.23;11.93;;;10.80;99.90;;;;;;5011788;28;20180;-65
2021/12/15 14:05:18;;;;;;;14.27;11.80;;;10.80;99.90;;;;;;5022140;28;20195;-66
2021/12/15 14:07:50;;;;;;;12.47;10.90;;;10.70;99.90;;;;;;5031590;28;20232;-66
2021/12/15 14:10:20;;;;;;;13.80;12.27;;;10.70;99.90;;;;;;5031189;28;20171;-66
2021/12/15 14:12:48;;;;;;;16.87;12.00;;;10.70;99.90;;;;;;5029628;28;20179;-67
2021/12/15 14:15:27;;;;;;;15.70;13.07;;;10.60;99.90;;;;;;5031424;28;20648;-64
2021/12/15 14:17:57;;;;;;;16.53;13.13;;;10.60;99.90;;;;;;5031591;28;20266;-67
2021/12/15 14:20:23;;;;;;;14.97;13.37;;;10.60;99.90;;;;;;5030910;28;20210;-66
2021/12/15 14:22:55;;;;;;;14.97;12.47;;;10.60;99.90;;;;;;5031110;28;20175;-67
2021/12/15 14:25:21;;;;;;;12.93;11.43;;;10.60;99.90;;;;;;5031352;28;20206;-67
2021/12/15 14:27:46;;;;;;;13.30;11.90;;;10.60;99.90;;;;;;5031279;28;20539;-65
2021/12/15 14:30:12;;;;;;;15.67;12.30;;;10.60;99.90;;;;;;5031185;28;20680;-66
2021/12/15 14:32:38;;;;;;;15.40;13.50;;;10.50;99.90;;;;;;5029958;28;20524;-65
2021/12/15 14:35:04;;;;;;;15.23;12.77;;;10.60;99.90;;;;;;5028587;28;20179;-65
2021/12/15 14:37:29;;;;;;;14.37;12.87;;;10.50;99.90;;;;;;5029748;28;20182;-64
2021/12/15 14:39:55;;;;;;;17.37;13.90;;;10.50;99.90;;;;;;5029767;28;20207;-65
2021/12/15 14:42:25;;;;;;;14.83;13.27;;;10.50;99.90;;;;;;5030745;28;20652;-65
2021/12/15 14:45:04;;;;;;;17.77;13.83;;;10.50;99.90;;;;;;5030105;28;20210;-68